Unser Platzwetter:

(um das Bild zu aktualisieren oder bei unvollständig geladenem Bild den Reload-Button des Browsers drücken)

[Quelle: ADDS]
METAR
ETNN 180020Z 26004KT 9999 FEW060 SCT340 23/17 Q1013 BLU+ =
ETNN 171300Z 1714/1723 20007KT 9999 NSW FEW070 PROB30 1714/1718 22015G35KT 3000 TSRAGR SCT030 BKN050CB BY ETGL
TAF
ETNN 171300Z 1714/1723 20007KT 9999 NSW FEW070 PROB30 1714/1718 22015G35KT 3000 TSRAGR SCT030 BKN050CB BY ETGL =
SR / SS: 03:20 / 19:49 UTC (Vettweiss-Soller 2021-06-18)

Aktuelle Windrichtung in Relation zu unserer Bahn:

 

Aktuelle Dichtehöhe bei uns am Platz: 1.488 ft.

PPR beachten

50 44 51 N / 06 34 01 E
525 ft
14/32 Gras 360 m
136.090 MHz
02424/901444

Kontakt:

LSG Gertrudenhof e.V.
c/o Franz-Josef Schmidt
An der Gärtnerei 13
52388 Nörvenich
02426/9593651
0175/2660491

in Lokalzeit:
05:17
21:51